createdAt,value
2023-03-02T00:02:10.481Z,2.80
2023-03-02T00:04:46.858Z,2.80
2023-03-02T00:07:18.916Z,2.80
2023-03-02T00:09:46.316Z,2.80
2023-03-02T00:12:16.971Z,2.80
2023-03-02T00:14:45.053Z,2.80
2023-03-02T00:17:12.210Z,2.80
2023-03-02T00:19:40.873Z,2.80
2023-03-02T00:22:10.092Z,2.80
2023-03-02T00:24:38.082Z,2.70
2023-03-02T00:27:06.437Z,2.70
2023-03-02T00:29:35.716Z,2.70
2023-03-02T00:32:04.076Z,2.70
2023-03-02T00:34:33.124Z,2.70
2023-03-02T00:37:02.085Z,2.70
2023-03-02T00:39:30.592Z,2.70
2023-03-02T00:41:58.355Z,2.60
2023-03-02T00:44:25.586Z,2.60
2023-03-02T00:46:53.116Z,2.60
2023-03-02T00:49:20.377Z,2.60
2023-03-02T00:51:47.755Z,2.60
2023-03-02T00:54:15.099Z,2.50
2023-03-02T00:56:42.431Z,2.50
2023-03-02T00:59:26.795Z,2.40
2023-03-02T01:02:30.005Z,2.50
2023-03-02T01:04:58.001Z,2.40
2023-03-02T01:07:28.641Z,2.40
2023-03-02T01:09:56.080Z,2.30
2023-03-02T01:12:23.626Z,2.30
2023-03-02T01:14:52.020Z,2.30
2023-03-02T01:17:19.593Z,2.30
2023-03-02T01:19:46.912Z,2.30
2023-03-02T01:22:16.689Z,2.30
2023-03-02T01:24:51.810Z,2.20
2023-03-02T01:27:19.589Z,2.30
2023-03-02T01:29:46.950Z,2.20
2023-03-02T01:32:14.212Z,2.30
2023-03-02T01:34:41.694Z,2.20
2023-03-02T01:37:08.918Z,2.20
2023-03-02T01:39:36.174Z,2.20
2023-03-02T01:42:04.517Z,2.20
2023-03-02T01:44:42.754Z,2.20
2023-03-02T01:47:23.544Z,2.20
2023-03-02T01:50:06.587Z,2.10
2023-03-02T01:52:38.924Z,2.10
2023-03-02T01:55:11.608Z,2.10
2023-03-02T01:57:43.911Z,2.10
2023-03-02T02:00:19.515Z,2.10
2023-03-02T02:02:51.130Z,2.10
2023-03-02T02:05:23.976Z,2.20
2023-03-02T02:07:51.448Z,2.10
2023-03-02T02:10:18.858Z,2.20
2023-03-02T02:13:09.904Z,2.10
2023-03-02T02:15:39.108Z,2.10
2023-03-02T02:18:08.118Z,2.00
2023-03-02T02:20:45.640Z,2.00
2023-03-02T02:23:37.030Z,2.00
2023-03-02T02:26:28.109Z,2.10
2023-03-02T02:29:13.879Z,2.00
2023-03-02T02:31:51.791Z,2.10
2023-03-02T02:34:30.752Z,2.00
2023-03-02T02:37:14.681Z,2.10
2023-03-02T02:39:47.210Z,2.10
2023-03-02T02:42:19.726Z,2.00
2023-03-02T02:44:47.724Z,2.00
2023-03-02T02:47:18.443Z,2.10
2023-03-02T02:49:47.997Z,2.00
2023-03-02T02:52:18.654Z,2.00
2023-03-02T02:54:51.844Z,2.00
2023-03-02T02:57:24.656Z,2.00
2023-03-02T02:59:56.202Z,2.00
2023-03-02T03:02:26.077Z,2.00
2023-03-02T03:05:02.667Z,2.00
2023-03-02T03:07:32.813Z,2.00
2023-03-02T03:10:24.629Z,1.90
2023-03-02T03:12:52.091Z,1.90
2023-03-02T03:15:21.491Z,1.90
2023-03-02T03:17:55.289Z,1.90
2023-03-02T03:20:24.031Z,1.90
2023-03-02T03:22:53.664Z,1.80
2023-03-02T03:25:26.977Z,1.80
2023-03-02T03:27:55.367Z,1.80
2023-03-02T03:30:22.816Z,1.70
2023-03-02T03:32:50.390Z,1.70
2023-03-02T03:35:17.948Z,1.70
2023-03-02T03:37:45.933Z,1.70
2023-03-02T03:40:15.070Z,1.60
2023-03-02T03:42:44.375Z,1.60
2023-03-02T03:45:12.567Z,1.60
2023-03-02T03:47:40.388Z,1.60
2023-03-02T03:50:09.283Z,1.50
2023-03-02T03:52:37.338Z,1.50
2023-03-02T03:55:31.498Z,1.50
2023-03-02T03:58:01.095Z,1.40
2023-03-02T04:00:28.425Z,1.40
2023-03-02T04:03:02.313Z,1.40
2023-03-02T04:05:31.785Z,1.30
2023-03-02T04:08:02.334Z,1.30
2023-03-02T04:10:30.722Z,1.30
2023-03-02T04:12:58.039Z,1.30
2023-03-02T04:15:25.656Z,1.20
2023-03-02T04:17:53.050Z,1.20
2023-03-02T04:20:23.332Z,1.20
2023-03-02T04:22:55.883Z,1.20
2023-03-02T04:25:30.364Z,1.20
2023-03-02T04:28:03.355Z,1.20
2023-03-02T04:30:35.631Z,1.10
2023-03-02T04:33:03.052Z,1.10
2023-03-02T04:35:31.113Z,1.10
2023-03-02T04:37:59.666Z,1.10
2023-03-02T04:40:27.433Z,1.10
2023-03-02T04:42:54.774Z,1.10
2023-03-02T04:45:21.959Z,1.10
2023-03-02T04:47:49.129Z,1.10
2023-03-02T04:50:16.425Z,1.10
2023-03-02T04:52:43.793Z,1.10
2023-03-02T04:55:19.959Z,1.10
2023-03-02T04:57:49.707Z,1.10
2023-03-02T05:00:21.516Z,1.10
2023-03-02T05:02:48.793Z,1.10
2023-03-02T05:05:24.538Z,1.10
2023-03-02T05:07:52.790Z,1.10
2023-03-02T05:10:21.052Z,1.10
2023-03-02T05:13:06.426Z,1.10
2023-03-02T05:15:40.452Z,1.10
2023-03-02T05:18:11.069Z,1.00
2023-03-02T05:20:38.563Z,1.00
2023-03-02T05:23:08.450Z,1.00
2023-03-02T05:25:37.478Z,1.00
2023-03-02T05:28:05.982Z,1.00
2023-03-02T05:30:37.598Z,1.00
2023-03-02T05:33:04.925Z,1.00
2023-03-02T05:35:32.132Z,1.00
2023-03-02T05:37:59.330Z,1.00
2023-03-02T05:40:26.528Z,1.00
2023-03-02T05:42:53.881Z,1.00
2023-03-02T05:45:33.030Z,0.90
2023-03-02T05:48:00.281Z,0.90
2023-03-02T05:50:28.030Z,0.90
2023-03-02T05:52:55.248Z,0.90
2023-03-02T05:55:22.991Z,0.90
2023-03-02T05:57:50.325Z,1.00
2023-03-02T06:00:19.013Z,1.00
2023-03-02T06:02:46.391Z,1.00
2023-03-02T06:05:17.094Z,1.00
2023-03-02T06:07:44.799Z,1.00
2023-03-02T06:10:13.336Z,1.00
2023-03-02T06:12:41.201Z,1.10
2023-03-02T06:15:09.402Z,1.20
2023-03-02T06:17:36.608Z,1.10
2023-03-02T06:20:10.550Z,1.20
2023-03-02T06:22:43.178Z,1.30
2023-03-02T06:25:18.877Z,1.40
2023-03-02T06:27:46.323Z,1.50
2023-03-02T06:30:18.622Z,1.60
2023-03-02T06:32:46.357Z,1.70
2023-03-02T06:35:14.600Z,1.70
2023-03-02T06:37:44.060Z,1.80
2023-03-02T06:40:13.963Z,1.80
2023-03-02T06:42:43.714Z,1.90
2023-03-02T06:45:11.670Z,2.00
2023-03-02T06:47:39.198Z,2.10
2023-03-02T06:50:06.800Z,2.20
2023-03-02T06:52:35.198Z,2.20
2023-03-02T06:55:02.825Z,2.30
2023-03-02T06:57:34.140Z,2.30
2023-03-02T07:00:06.951Z,2.40
2023-03-02T07:02:34.218Z,2.60
2023-03-02T07:05:01.393Z,2.50
2023-03-02T07:07:29.041Z,2.70
2023-03-02T07:09:56.233Z,2.80
2023-03-02T08:55:21.108Z,6.90
2023-03-02T10:29:42.617Z,9.50
2023-03-02T11:32:03.429Z,10.80
2023-03-02T12:59:58.389Z,11.70
2023-03-02T19:14:45.090Z,5.50
2023-03-02T19:17:15.530Z,5.50
2023-03-02T19:19:46.509Z,5.40
2023-03-02T19:22:18.165Z,5.40
2023-03-02T19:24:47.512Z,5.40
2023-03-02T19:27:17.893Z,5.40
2023-03-02T19:29:46.576Z,5.30
2023-03-02T19:32:16.297Z,5.30
2023-03-02T19:34:45.071Z,5.30
2023-03-02T19:37:12.950Z,5.30
2023-03-02T19:39:41.445Z,5.20
2023-03-02T19:42:10.015Z,5.20
2023-03-02T19:44:39.703Z,5.20
2023-03-02T19:47:13.780Z,5.20
2023-03-02T19:49:41.964Z,5.10
2023-03-02T19:52:10.748Z,5.10
2023-03-02T19:54:38.841Z,5.10
2023-03-02T19:57:08.442Z,5.10
2023-03-02T19:59:37.220Z,5.10
2023-03-02T20:02:05.522Z,5.00
2023-03-02T20:04:35.361Z,5.00
2023-03-02T20:07:03.755Z,5.00
2023-03-02T20:09:32.898Z,4.90
2023-03-02T20:12:04.637Z,4.90
2023-03-02T20:14:35.519Z,4.90
2023-03-02T20:17:08.345Z,4.80
2023-03-02T20:19:36.040Z,4.80
2023-03-02T20:22:08.519Z,4.80
2023-03-02T20:24:36.634Z,4.70
2023-03-02T20:27:08.621Z,4.70
2023-03-02T20:29:38.331Z,4.70
2023-03-02T20:32:09.359Z,4.70
2023-03-02T20:34:39.514Z,4.60
2023-03-02T20:37:09.368Z,4.60
2023-03-02T20:39:40.332Z,4.60
2023-03-02T20:42:09.576Z,4.50
2023-03-02T20:44:38.601Z,4.50
2023-03-02T20:47:10.722Z,4.50
2023-03-02T20:49:39.522Z,4.50
2023-03-02T20:52:10.356Z,4.40
2023-03-02T20:54:42.603Z,4.40
2023-03-02T20:57:17.767Z,4.30
2023-03-02T20:59:49.252Z,4.30
2023-03-02T21:02:19.866Z,4.30
2023-03-02T21:04:48.296Z,4.30
2023-03-02T21:07:17.088Z,4.30
2023-03-02T21:09:45.447Z,4.20
2023-03-02T21:12:13.254Z,4.20
2023-03-02T21:14:41.743Z,4.20
2023-03-02T21:17:09.965Z,4.20
2023-03-02T21:19:37.648Z,4.20
2023-03-02T21:22:07.099Z,4.10
2023-03-02T21:24:34.562Z,4.10
2023-03-02T21:27:03.756Z,4.10
2023-03-02T21:29:31.596Z,4.10
2023-03-02T21:32:00.761Z,4.10
2023-03-02T21:34:29.133Z,4.00
2023-03-02T21:36:58.561Z,4.00
2023-03-02T21:39:26.222Z,4.00
2023-03-02T21:41:54.736Z,3.90
2023-03-02T21:44:23.025Z,4.00
2023-03-02T21:46:50.956Z,3.90
2023-03-02T21:49:21.032Z,3.90
2023-03-02T21:51:49.926Z,3.90
2023-03-02T21:54:17.570Z,3.90
2023-03-02T21:56:45.197Z,3.90
2023-03-02T21:59:12.877Z,3.80
2023-03-02T22:01:40.349Z,3.80
2023-03-02T22:04:07.565Z,3.80
2023-03-02T22:06:35.898Z,3.80
2023-03-02T22:09:04.125Z,3.70
2023-03-02T22:11:37.427Z,3.70
2023-03-02T22:14:13.238Z,3.70
2023-03-02T22:16:45.209Z,3.60
2023-03-02T22:19:26.302Z,3.60
2023-03-02T22:21:56.345Z,3.60
2023-03-02T22:24:26.961Z,3.60
2023-03-02T22:27:16.776Z,3.60
2023-03-02T22:29:46.219Z,3.60
2023-03-02T22:32:28.607Z,3.60
2023-03-02T22:35:00.957Z,3.50
2023-03-02T22:37:34.380Z,3.60
2023-03-02T22:40:08.075Z,3.50
2023-03-02T22:42:35.361Z,3.50
2023-03-02T22:45:14.977Z,3.50
2023-03-02T22:47:43.395Z,3.50
2023-03-02T22:50:27.215Z,3.40
2023-03-02T22:52:56.639Z,3.40
2023-03-02T22:55:43.534Z,3.40
2023-03-02T22:58:35.940Z,3.40
2023-03-02T23:01:13.793Z,3.40
2023-03-02T23:03:44.624Z,3.40
2023-03-02T23:06:23.281Z,3.30
2023-03-02T23:08:51.830Z,3.30
2023-03-02T23:11:22.771Z,3.30
2023-03-02T23:13:51.239Z,3.30
2023-03-02T23:16:26.271Z,3.30
2023-03-02T23:18:59.411Z,3.30
2023-03-02T23:21:33.202Z,3.30
2023-03-02T23:24:01.557Z,3.30
2023-03-02T23:26:28.935Z,3.30
2023-03-02T23:28:56.186Z,3.30
2023-03-02T23:31:23.575Z,3.20
2023-03-02T23:33:51.306Z,3.20
2023-03-02T23:36:20.936Z,3.20
2023-03-02T23:38:49.668Z,3.20
2023-03-02T23:41:17.487Z,3.20
2023-03-02T23:43:44.791Z,3.20
2023-03-02T23:46:14.366Z,3.20
2023-03-02T23:48:42.662Z,3.20
2023-03-02T23:51:10.406Z,3.20
2023-03-02T23:53:37.650Z,3.20
2023-03-02T23:56:05.101Z,3.20
2023-03-02T23:58:32.569Z,3.20
